Finlandia — OJPP — position and weather

sailwx.info

Track history (hours):
 
Tides and Currents Weather Stations Pressure Air Temp Water Temp Dewpoint Dewpoint Depression Visibility Wind Speed Wind Dir Waves Ship Positions

Finlandia

Last reported at 2016-Dec-05 01:33 UTC. Time now 2016-Dec-05 02:32 UTC.
Position N 60°09' E 024°55'.

Length 175 m; draft 7 m.

Type: Passenger vessel. MMSI: 230628000.

Date/timePositionNaut miles runAvg speedWind from/ knotsBaromVisibWave heightAir tempDewpointWater temp
2016-Dec-05 01:33N 60°09' E 024°55'0 0.0
2016-Dec-05 00:33N 60°09' E 024°55'0 0.0
2016-Dec-04 23:33N 60°09' E 024°55'0 0.0
2016-Dec-04 22:33N 60°09' E 024°55'0 0.0
2016-Dec-04 21:33N 60°09' E 024°55'0 0.0
2016-Dec-04 20:33N 60°09' E 024°55'0 0.0
2016-Dec-04 19:31N 60°09' E 024°55'8 8.1
2016-Dec-04 18:34N 60°01' E 024°55'2120.7
2016-Dec-04 17:33N 59°41' E 024°45'8 2.6
2016-Dec-04 14:33N 59°49' E 024°47'2020.4
2016-Dec-04 13:34N 60°09' E 024°54'1 0.6
2016-Dec-04 12:31N 60°09' E 024°55'1111.9
2016-Dec-04 11:34N 59°58' E 024°57'6 1.5
2016-Dec-04 07:31N 59°52' E 024°51'1617.2
2016-Dec-04 06:34N 60°09' E 024°56'1 0.7
2016-Dec-04 05:32N 60°09' E 024°55'0 0.0
2016-Dec-04 04:32N 60°09' E 024°55'0 0.0
2016-Dec-04 03:32N 60°09' E 024°55'0 0.0
2016-Dec-04 02:32N 60°09' E 024°55'0 0.0
2016-Dec-04 01:32N 60°09' E 024°55'0 0.0
2016-Dec-04 00:32N 60°09' E 024°55'0 0.0
2016-Dec-03 23:32N 60°09' E 024°55'0 0.0
2016-Dec-03 22:32N 60°09' E 024°55'0 0.0
2016-Dec-03 21:32N 60°09' E 024°55'0 0.0
2016-Dec-03 20:32N 60°09' E 024°55'0 0.0
2016-Dec-03 19:32N 60°09' E 024°55'1010.1
2016-Dec-03 18:33N 59°59' E 024°54'4 0.9
2016-Dec-03 14:20N 59°56' E 024°52'1417.6
2016-Dec-03 13:33N 60°09' E 024°55'0 0.0
2016-Dec-03 12:31N 60°09' E 024°55'1313.3
2016-Dec-03 11:33N 59°56' E 024°53'6 1.4
2016-Dec-03 07:28N 59°51' E 024°49'1719.0
2016-Dec-03 06:34N 60°08' E 024°54'1 0.9
2016-Dec-03 05:33N 60°09' E 024°55'0 0.0
2016-Dec-03 04:34N 60°09' E 024°55'0 0.0
2016-Dec-03 03:34N 60°09' E 024°55'0 0.0
2016-Dec-03 02:34N 60°09' E 024°55'0 0.0
2016-Dec-03 01:34N 60°09' E 024°55'0 0.0
2016-Dec-03 00:34N 60°09' E 024°55'0 0.0
2016-Dec-02 23:34N 60°09' E 024°55'0 0.0
2016-Dec-02 22:33N 60°09' E 024°55'0 0.0
2016-Dec-02 21:34N 60°09' E 024°55'0 0.0
2016-Dec-02 20:34N 60°09' E 024°55'0 0.0
2016-Dec-02 19:34N 60°09' E 024°55'8 8.0
2016-Dec-02 18:33N 60°01' E 024°55'8 0.3
2016-Dec-01 11:24N 59°53' E 024°50'1719.9
2016-Dec-01 10:33N 59°37' E 024°41'1110.6
2016-Dec-01 09:33N 59°27' E 024°46'3 3.1
2016-Dec-01 08:33N 59°30' E 024°45'1919.1
2016-Dec-01 07:33N 59°49' E 024°47'9 2.4
2016-Dec-01 03:33N 59°56' E 025°01'9 9.0
2016-Dec-01 02:33N 59°53' E 024°44'9 7.9
2016-Dec-01 01:25N 59°44' E 024°47'1112.2
2016-Dec-01 00:33N 59°33' E 024°43'7 6.8
2016-Nov-30 23:33N 59°27' E 024°46'0 0.3
2016-Nov-30 22:33N 59°27' E 024°46'1817.7
2016-Nov-30 21:33N 59°45' E 024°44'7 2.0
2016-Nov-30 18:12N 59°50' E 024°51'1523.5
2016-Nov-30 17:33N 59°36' E 024°41'9 9.4
2016-Nov-30 16:34N 59°27' E 024°46'1 0.8
2016-Nov-30 15:34N 59°27' E 024°47'2424.1
2016-Nov-30 14:34N 59°51' E 024°50'15 3.7
2016-Nov-30 10:33N 59°37' E 024°42'1110.6
2016-Nov-30 09:33N 59°27' E 024°46'3 3.3
2016-Nov-30 08:33N 59°30' E 024°45'2019.8
2016-Nov-30 07:32N 59°50' E 024°48'5 1.2
2016-Nov-30 03:23N 59°53' E 024°56'910.3
2016-Nov-30 02:33N 59°53' E 024°39'9 7.7
2016-Nov-30 01:25N 59°46' E 024°48'1112.0
2016-Nov-30 00:32N 59°36' E 024°41'9 9.5
2016-Nov-29 23:33N 59°27' E 024°46'0 0.3
2016-Nov-29 22:33N 59°27' E 024°46'1818.1
2016-Nov-29 21:33N 59°45' E 024°44'11 3.2
2016-Nov-29 18:12N 59°55' E 024°52'1421.5
2016-Nov-29 17:33N 59°42' E 024°42'1515.4
2016-Nov-29 16:33N 59°27' E 024°46'1 0.7
2016-Nov-29 15:34N 59°27' E 024°47'2423.6
2016-Nov-29 14:33N 59°51' E 024°50'17 4.3
2016-Nov-29 10:33N 59°34' E 024°42'8 7.6
2016-Nov-29 09:32N 59°27' E 024°46'3 3.0
2016-Nov-29 08:33N 59°30' E 024°45'2020.0
2016-Nov-29 07:33N 59°49' E 024°50'2019.2
2016-Nov-29 06:32N 60°09' E 024°55'1 0.2
2016-Nov-29 03:34N 60°09' E 024°55'0 0.0
2016-Nov-29 02:33N 60°09' E 024°55'0 0.0
2016-Nov-29 01:34N 60°09' E 024°55'0 0.0
2016-Nov-29 00:34N 60°09' E 024°55'0 0.0
2016-Nov-28 23:34N 60°09' E 024°55'0 0.0
2016-Nov-28 22:34N 60°09' E 024°55'0 0.0
2016-Nov-28 21:33N 60°09' E 024°55'0 0.0
2016-Nov-28 20:34N 60°09' E 024°55'0 0.0
2016-Nov-28 19:34N 60°09' E 024°55'8 8.4
2016-Nov-28 18:34N 60°01' E 024°54'2221.8
2016-Nov-28 17:33N 59°40' E 024°44'1312.8
2016-Nov-28 16:33N 59°27' E 024°46'1 0.5
2016-Nov-28 15:33N 59°27' E 024°47'2222.2
2016-Nov-28 14:33N 59°49' E 024°49'2020.2
2016-Nov-28 13:33N 60°09' E 024°55'0 0.1
2016-Nov-28 12:33N 60°09' E 024°55'1414.0
2016-Nov-28 11:33N 59°55' E 024°52'2120.4
2016-Nov-28 10:33N 59°36' E 024°41'9 8.0
2016-Nov-28 09:25N 59°27' E 024°46'3 3.5
2016-Nov-28 08:33N 59°30' E 024°45'1918.9
2016-Nov-28 07:33N 59°48' E 024°49'8 0.6
2016-Nov-27 17:33N 59°40' E 024°44'1413.6
2016-Nov-27 16:33N 59°27' E 024°46'1 0.5
2016-Nov-27 15:33N 59°27' E 024°47'2019.5
2016-Nov-27 14:34N 59°46' E 024°48'12 2.9
2016-Nov-27 10:33N 59°35' E 024°42'9 7.1
2016-Nov-27 09:19N 59°27' E 024°46'4 5.3
2016-Nov-27 08:33N 59°31' E 024°44'1818.5
2016-Nov-27 07:33N 59°49' E 024°50'7 0.5
2016-Nov-26 17:33N 59°42' E 024°46'1615.7
2016-Nov-26 16:33N 59°27' E 024°46'0 0.4
2016-Nov-26 15:33N 59°27' E 024°47'2121.0
2016-Nov-26 14:33N 59°48' E 024°46'7 2.2
2016-Nov-26 11:25N 59°54' E 024°51'1820.7
2016-Nov-26 10:33N 59°37' E 024°41'6 3.2
2016-Nov-26 08:33N 59°31' E 024°44'1918.9
2016-Nov-26 07:33N 59°49' E 024°50'20 5.0
2016-Nov-26 03:33N 60°09' E 024°55'0 0.0
2016-Nov-26 02:33N 60°09' E 024°55'0 0.0
2016-Nov-26 01:33N 60°09' E 024°55'0 0.0
2016-Nov-26 00:33N 60°09' E 024°55'0 0.0
2016-Nov-25 23:34N 60°09' E 024°55'0 0.0
2016-Nov-25 22:33N 60°09' E 024°55'0 0.0
2016-Nov-25 21:33N 60°09' E 024°55'0 0.0
2016-Nov-25 20:33N 60°09' E 024°55'0 0.0
2016-Nov-25 19:34N 60°09' E 024°55'8 8.0
2016-Nov-25 18:33N 60°01' E 024°55'2019.4
2016-Nov-25 17:33N 59°43' E 024°42'1616.1
2016-Nov-25 16:33N 59°27' E 024°46'1 0.6
2016-Nov-25 15:33N 59°27' E 024°47'2222.3
2016-Nov-25 14:33N 59°49' E 024°49'5 1.7
2016-Nov-25 11:25N 59°54' E 024°51'1820.6
2016-Nov-25 10:34N 59°38' E 024°41'7 3.5
2016-Nov-25 08:33N 59°31' E 024°44'2319.4
2016-Nov-25 07:23N 59°53' E 024°51'  
Track history (hours):
 
Tides and Currents Weather Stations Pressure Air Temp Water Temp Dewpoint Dewpoint Depression Visibility Wind Speed Wind Dir Waves Ship Positions

Finlandia

Last reported at 2016-Dec-05 01:33 UTC. Time now 2016-Dec-05 02:32 UTC.
Position N 60°09' E 024°55'.

Length 175 m; draft 7 m.

Type: Passenger vessel. MMSI: 230628000.

Date/timePositionNaut miles runAvg speedWind from/ knotsBaromVisibWave heightAir tempDewpointWater temp
2016-Dec-05 01:33N 60°09' E 024°55'0 0.0
2016-Dec-05 00:33N 60°09' E 024°55'0 0.0
2016-Dec-04 23:33N 60°09' E 024°55'0 0.0
2016-Dec-04 22:33N 60°09' E 024°55'0 0.0
2016-Dec-04 21:33N 60°09' E 024°55'0 0.0
2016-Dec-04 20:33N 60°09' E 024°55'0 0.0
2016-Dec-04 19:31N 60°09' E 024°55'8 8.1
2016-Dec-04 18:34N 60°01' E 024°55'2120.7
2016-Dec-04 17:33N 59°41' E 024°45'8 2.6
2016-Dec-04 14:33N 59°49' E 024°47'2020.4
2016-Dec-04 13:34N 60°09' E 024°54'1 0.6
2016-Dec-04 12:31N 60°09' E 024°55'1111.9
2016-Dec-04 11:34N 59°58' E 024°57'6 1.5
2016-Dec-04 07:31N 59°52' E 024°51'1617.2
2016-Dec-04 06:34N 60°09' E 024°56'1 0.7
2016-Dec-04 05:32N 60°09' E 024°55'0 0.0
2016-Dec-04 04:32N 60°09' E 024°55'0 0.0
2016-Dec-04 03:32N 60°09' E 024°55'0 0.0
2016-Dec-04 02:32N 60°09' E 024°55'0 0.0
2016-Dec-04 01:32N 60°09' E 024°55'0 0.0
2016-Dec-04 00:32N 60°09' E 024°55'0 0.0
2016-Dec-03 23:32N 60°09' E 024°55'0 0.0
2016-Dec-03 22:32N 60°09' E 024°55'0 0.0
2016-Dec-03 21:32N 60°09' E 024°55'0 0.0
2016-Dec-03 20:32N 60°09' E 024°55'0 0.0
2016-Dec-03 19:32N 60°09' E 024°55'1010.1
2016-Dec-03 18:33N 59°59' E 024°54'4 0.9
2016-Dec-03 14:20N 59°56' E 024°52'1417.6
2016-Dec-03 13:33N 60°09' E 024°55'0 0.0
2016-Dec-03 12:31N 60°09' E 024°55'1313.3
2016-Dec-03 11:33N 59°56' E 024°53'6 1.4
2016-Dec-03 07:28N 59°51' E 024°49'1719.0
2016-Dec-03 06:34N 60°08' E 024°54'1 0.9
2016-Dec-03 05:33N 60°09' E 024°55'0 0.0
2016-Dec-03 04:34N 60°09' E 024°55'0 0.0
2016-Dec-03 03:34N 60°09' E 024°55'0 0.0
2016-Dec-03 02:34N 60°09' E 024°55'0 0.0
2016-Dec-03 01:34N 60°09' E 024°55'0 0.0
2016-Dec-03 00:34N 60°09' E 024°55'0 0.0
2016-Dec-02 23:34N 60°09' E 024°55'0 0.0
2016-Dec-02 22:33N 60°09' E 024°55'0 0.0
2016-Dec-02 21:34N 60°09' E 024°55'0 0.0
2016-Dec-02 20:34N 60°09' E 024°55'0 0.0
2016-Dec-02 19:34N 60°09' E 024°55'8 8.0
2016-Dec-02 18:33N 60°01' E 024°55'8 0.3
2016-Dec-01 11:24N 59°53' E 024°50'1719.9
2016-Dec-01 10:33N 59°37' E 024°41'1110.6
2016-Dec-01 09:33N 59°27' E 024°46'3 3.1
2016-Dec-01 08:33N 59°30' E 024°45'1919.1
2016-Dec-01 07:33N 59°49' E 024°47'9 2.4
2016-Dec-01 03:33N 59°56' E 025°01'9 9.0
2016-Dec-01 02:33N 59°53' E 024°44'9 7.9
2016-Dec-01 01:25N 59°44' E 024°47'1112.2
2016-Dec-01 00:33N 59°33' E 024°43'7 6.8
2016-Nov-30 23:33N 59°27' E 024°46'0 0.3
2016-Nov-30 22:33N 59°27' E 024°46'1817.7
2016-Nov-30 21:33N 59°45' E 024°44'7 2.0
2016-Nov-30 18:12N 59°50' E 024°51'1523.5
2016-Nov-30 17:33N 59°36' E 024°41'9 9.4
2016-Nov-30 16:34N 59°27' E 024°46'1 0.8
2016-Nov-30 15:34N 59°27' E 024°47'2424.1
2016-Nov-30 14:34N 59°51' E 024°50'15 3.7
2016-Nov-30 10:33N 59°37' E 024°42'1110.6
2016-Nov-30 09:33N 59°27' E 024°46'3 3.3
2016-Nov-30 08:33N 59°30' E 024°45'2019.8
2016-Nov-30 07:32N 59°50' E 024°48'5 1.2
2016-Nov-30 03:23N 59°53' E 024°56'910.3
2016-Nov-30 02:33N 59°53' E 024°39'9 7.7
2016-Nov-30 01:25N 59°46' E 024°48'1112.0
2016-Nov-30 00:32N 59°36' E 024°41'9 9.5
2016-Nov-29 23:33N 59°27' E 024°46'0 0.3
2016-Nov-29 22:33N 59°27' E 024°46'1818.1
2016-Nov-29 21:33N 59°45' E 024°44'11 3.2
2016-Nov-29 18:12N 59°55' E 024°52'1421.5
2016-Nov-29 17:33N 59°42' E 024°42'1515.4
2016-Nov-29 16:33N 59°27' E 024°46'1 0.7
2016-Nov-29 15:34N 59°27' E 024°47'2423.6
2016-Nov-29 14:33N 59°51' E 024°50'17 4.3
2016-Nov-29 10:33N 59°34' E 024°42'8 7.6
2016-Nov-29 09:32N 59°27' E 024°46'3 3.0
2016-Nov-29 08:33N 59°30' E 024°45'2020.0
2016-Nov-29 07:33N 59°49' E 024°50'2019.2
2016-Nov-29 06:32N 60°09' E 024°55'1 0.2
2016-Nov-29 03:34N 60°09' E 024°55'0 0.0
2016-Nov-29 02:33N 60°09' E 024°55'0 0.0
2016-Nov-29 01:34N 60°09' E 024°55'0 0.0
2016-Nov-29 00:34N 60°09' E 024°55'0 0.0
2016-Nov-28 23:34N 60°09' E 024°55'0 0.0
2016-Nov-28 22:34N 60°09' E 024°55'0 0.0
2016-Nov-28 21:33N 60°09' E 024°55'0 0.0
2016-Nov-28 20:34N 60°09' E 024°55'0 0.0
2016-Nov-28 19:34N 60°09' E 024°55'8 8.4
2016-Nov-28 18:34N 60°01' E 024°54'2221.8
2016-Nov-28 17:33N 59°40' E 024°44'1312.8
2016-Nov-28 16:33N 59°27' E 024°46'1 0.5
2016-Nov-28 15:33N 59°27' E 024°47'2222.2
2016-Nov-28 14:33N 59°49' E 024°49'2020.2
2016-Nov-28 13:33N 60°09' E 024°55'0 0.1
2016-Nov-28 12:33N 60°09' E 024°55'1414.0
2016-Nov-28 11:33N 59°55' E 024°52'2120.4
2016-Nov-28 10:33N 59°36' E 024°41'9 8.0
2016-Nov-28 09:25N 59°27' E 024°46'3 3.5
2016-Nov-28 08:33N 59°30' E 024°45'1918.9
2016-Nov-28 07:33N 59°48' E 024°49'8 0.6
2016-Nov-27 17:33N 59°40' E 024°44'1413.6
2016-Nov-27 16:33N 59°27' E 024°46'1 0.5
2016-Nov-27 15:33N 59°27' E 024°47'2019.5
2016-Nov-27 14:34N 59°46' E 024°48'12 2.9
2016-Nov-27 10:33N 59°35' E 024°42'9 7.1
2016-Nov-27 09:19N 59°27' E 024°46'4 5.3
2016-Nov-27 08:33N 59°31' E 024°44'1818.5
2016-Nov-27 07:33N 59°49' E 024°50'7 0.5
2016-Nov-26 17:33N 59°42' E 024°46'1615.7
2016-Nov-26 16:33N 59°27' E 024°46'0 0.4
2016-Nov-26 15:33N 59°27' E 024°47'2121.0
2016-Nov-26 14:33N 59°48' E 024°46'7 2.2
2016-Nov-26 11:25N 59°54' E 024°51'1820.7
2016-Nov-26 10:33N 59°37' E 024°41'6 3.2
2016-Nov-26 08:33N 59°31' E 024°44'1918.9
2016-Nov-26 07:33N 59°49' E 024°50'20 5.0
2016-Nov-26 03:33N 60°09' E 024°55'0 0.0
2016-Nov-26 02:33N 60°09' E 024°55'0 0.0
2016-Nov-26 01:33N 60°09' E 024°55'0 0.0
2016-Nov-26 00:33N 60°09' E 024°55'0 0.0
2016-Nov-25 23:34N 60°09' E 024°55'0 0.0
2016-Nov-25 22:33N 60°09' E 024°55'0 0.0
2016-Nov-25 21:33N 60°09' E 024°55'0 0.0
2016-Nov-25 20:33N 60°09' E 024°55'0 0.0
2016-Nov-25 19:34N 60°09' E 024°55'8 8.0
2016-Nov-25 18:33N 60°01' E 024°55'2019.4
2016-Nov-25 17:33N 59°43' E 024°42'1616.1
2016-Nov-25 16:33N 59°27' E 024°46'1 0.6
2016-Nov-25 15:33N 59°27' E 024°47'2222.3
2016-Nov-25 14:33N 59°49' E 024°49'5 1.7
2016-Nov-25 11:25N 59°54' E 024°51'1820.6
2016-Nov-25 10:34N 59°38' E 024°41'7 3.5
2016-Nov-25 08:33N 59°31' E 024°44'2319.4
2016-Nov-25 07:23N 59°53' E 024°51'  

Dump ship's entire track history